createdAt,value
2023-08-14T00:00:51.019Z,92977.03
2023-08-14T00:03:17.708Z,92996.50
2023-08-14T00:05:44.243Z,93023.94
2023-08-14T00:08:10.893Z,93075.91
2023-08-14T00:10:37.419Z,93061.47
2023-08-14T00:13:04.208Z,93062.72
2023-08-14T00:15:30.858Z,93050.59
2023-08-14T00:17:57.442Z,93053.38
2023-08-14T00:20:23.922Z,93028.19
2023-08-14T00:22:50.370Z,93029.53
2023-08-14T00:25:16.927Z,93026.41
2023-08-14T00:27:43.458Z,93023.63
2023-08-14T00:30:10.116Z,93022.03
2023-08-14T00:32:36.777Z,93015.31
2023-08-14T00:35:03.771Z,93011.91
2023-08-14T00:37:41.396Z,93009.41
2023-08-14T00:40:08.560Z,93005.66
2023-08-14T00:42:35.041Z,93007.03
2023-08-14T00:45:01.541Z,92999.56
2023-08-14T00:47:28.050Z,92993.91
2023-08-14T00:49:54.651Z,92991.09
2023-08-14T00:52:21.162Z,92996.78
2023-08-14T00:54:47.658Z,92984.53
2023-08-14T00:57:14.277Z,92984.06
2023-08-14T00:59:40.832Z,92970.75
2023-08-14T01:02:07.371Z,92969.94
2023-08-14T01:04:33.942Z,92965.25
2023-08-14T01:07:02.759Z,92961.03
2023-08-14T01:09:31.261Z,92957.25
2023-08-14T01:12:08.530Z,92965.91
2023-08-14T01:14:36.340Z,92968.22
2023-08-14T01:17:09.907Z,92959.47
2023-08-14T01:19:41.481Z,92962.59
2023-08-14T01:22:17.775Z,92949.91
2023-08-14T01:25:05.233Z,92940.81
2023-08-14T01:27:31.863Z,92929.22
2023-08-14T01:29:59.993Z,92918.41
2023-08-14T01:32:26.792Z,92923.28
2023-08-14T01:34:56.005Z,92914.34
2023-08-14T01:37:28.237Z,92922.47
2023-08-14T01:40:08.263Z,92915.09
2023-08-14T01:42:38.283Z,92917.28
2023-08-14T01:45:17.366Z,92922.31
2023-08-14T01:47:46.704Z,92914.00
2023-08-14T01:50:17.612Z,92916.50
2023-08-14T01:52:44.449Z,92921.34
2023-08-14T01:55:10.927Z,92911.31
2023-08-14T01:57:37.452Z,92913.03
2023-08-14T02:00:06.491Z,92910.56
2023-08-14T02:02:39.176Z,92911.66
2023-08-14T02:05:05.887Z,92928.09
2023-08-14T02:07:32.348Z,92933.72
2023-08-14T02:09:58.813Z,92928.72
2023-08-14T02:12:25.423Z,92929.94
2023-08-14T02:14:51.973Z,92923.03
2023-08-14T02:17:18.416Z,92923.88
2023-08-14T02:19:44.863Z,92923.72
2023-08-14T02:22:11.307Z,92921.34
2023-08-14T02:24:37.787Z,92909.94
2023-08-14T02:27:04.492Z,92913.06
2023-08-14T02:29:33.568Z,92914.63
2023-08-14T02:32:00.022Z,92904.44
2023-08-14T02:34:35.083Z,92910.84
2023-08-14T02:37:01.832Z,92905.38
2023-08-14T02:39:28.360Z,92900.03
2023-08-14T02:41:54.823Z,92900.84
2023-08-14T02:44:21.280Z,92897.09
2023-08-14T02:46:47.706Z,92899.28
2023-08-14T02:49:14.166Z,92892.38
2023-08-14T02:51:40.712Z,92889.25
2023-08-14T02:54:07.285Z,92884.53
2023-08-14T02:56:33.734Z,92893.47
2023-08-14T02:59:00.179Z,92894.22
2023-08-14T03:01:26.715Z,92899.56
2023-08-14T03:03:53.200Z,92891.91
2023-08-14T03:06:19.750Z,92893.88
2023-08-14T03:08:46.230Z,92890.75
2023-08-14T03:11:12.717Z,92886.06
2023-08-14T03:13:40.203Z,92884.50
2023-08-14T03:16:07.278Z,92885.59
2023-08-14T03:18:33.746Z,92889.50
2023-08-14T03:21:00.217Z,92898.28
2023-08-14T03:23:26.716Z,92903.44
2023-08-14T03:25:53.180Z,92910.16
2023-08-14T03:28:19.756Z,92915.00
2023-08-14T03:30:49.694Z,92916.75
2023-08-14T03:33:17.180Z,92913.00
2023-08-14T03:35:44.532Z,92918.31
2023-08-14T03:38:13.976Z,92917.22
2023-08-14T03:40:40.489Z,92911.44
2023-08-14T03:43:06.937Z,92906.09
2023-08-14T03:45:33.392Z,92906.09
2023-08-14T03:47:59.897Z,92912.06
2023-08-14T03:50:26.516Z,92912.22
2023-08-14T03:52:53.866Z,92914.88
2023-08-14T03:55:21.556Z,92916.44
2023-08-14T03:57:48.018Z,92915.63
2023-08-14T04:00:14.837Z,92923.91
2023-08-14T04:02:42.702Z,92921.56
2023-08-14T04:05:09.352Z,92916.97
2023-08-14T04:07:35.830Z,92917.16
2023-08-14T04:10:02.391Z,92914.81
2023-08-14T04:12:28.833Z,92904.16
2023-08-14T04:14:55.268Z,92899.78
2023-08-14T04:17:21.762Z,92901.03
2023-08-14T04:19:48.201Z,92910.00
2023-08-14T04:22:14.653Z,92909.38
2023-08-14T04:24:41.105Z,92906.38
2023-08-14T04:27:07.559Z,92900.47
2023-08-14T04:29:34.022Z,92902.03
2023-08-14T04:32:00.500Z,92903.72
2023-08-14T04:34:26.974Z,92911.59
2023-08-14T04:36:55.056Z,92906.25
2023-08-14T04:39:21.610Z,92905.78
2023-08-14T04:41:48.084Z,92906.72
2023-08-14T04:44:15.961Z,92889.84
2023-08-14T04:46:57.497Z,92882.81
2023-08-14T04:49:26.349Z,92887.50
2023-08-14T04:51:52.828Z,92879.38
2023-08-14T04:54:19.472Z,92880.16
2023-08-14T04:56:46.025Z,92877.03
2023-08-14T04:59:12.566Z,92876.72
2023-08-14T05:01:39.106Z,92870.28
2023-08-14T05:04:06.776Z,92870.44
2023-08-14T05:06:33.365Z,92862.94
2023-08-14T05:09:02.185Z,92869.06
2023-08-14T05:11:31.508Z,92868.25
2023-08-14T05:13:57.956Z,92867.16
2023-08-14T05:16:26.163Z,92873.13
2023-08-14T05:18:52.791Z,92873.59
2023-08-14T05:21:19.237Z,92873.59
2023-08-14T05:23:45.708Z,92869.81
2023-08-14T05:26:12.176Z,92865.13
2023-08-14T05:28:38.728Z,92867.50
2023-08-14T05:31:08.492Z,92869.06
2023-08-14T05:33:35.293Z,92869.19
2023-08-14T05:36:01.770Z,92865.59
2023-08-14T05:38:28.250Z,92859.97
2023-08-14T05:40:54.730Z,92856.84
2023-08-14T05:43:21.182Z,92859.97
2023-08-14T05:45:47.737Z,92859.00
2023-08-14T05:48:15.408Z,92857.91
2023-08-14T05:50:42.371Z,92855.75
2023-08-14T05:53:09.633Z,92853.53
2023-08-14T05:55:40.859Z,92854.47
2023-08-14T05:58:08.254Z,92854.16
2023-08-14T06:00:36.539Z,92850.25
2023-08-14T06:03:03.930Z,92856.97
2023-08-14T06:05:30.575Z,92850.53
2023-08-14T06:07:57.755Z,92849.75
2023-08-14T06:10:24.459Z,92847.38
2023-08-14T06:12:51.444Z,92846.13
2023-08-14T06:15:22.345Z,92843.75
2023-08-14T06:17:49.616Z,92846.72
2023-08-14T06:20:16.854Z,92846.56
2023-08-14T06:22:45.259Z,92837.94
2023-08-14T06:25:13.104Z,92831.53
2023-08-14T06:27:40.650Z,92837.28
2023-08-14T06:30:11.785Z,92840.38
2023-08-14T06:32:39.409Z,92838.00
2023-08-14T06:35:07.322Z,92832.81
2023-08-14T06:37:34.560Z,92841.41
2023-08-14T06:40:01.014Z,92846.13
2023-08-14T06:42:27.478Z,92853.94
2023-08-14T06:44:53.972Z,92840.41
2023-08-14T06:47:20.485Z,92849.81
2023-08-14T06:49:46.967Z,92843.03
2023-08-14T06:52:14.783Z,92842.06
2023-08-14T06:54:41.305Z,92848.78
2023-08-14T06:57:09.025Z,92848.25
2023-08-14T06:59:36.066Z,92844.97
2023-08-14T07:02:02.616Z,92839.13
2023-08-14T07:04:29.151Z,92840.50
2023-08-14T07:06:55.686Z,92834.53
2023-08-14T07:09:22.235Z,92835.88
2023-08-14T07:11:48.936Z,92841.03
2023-08-14T07:14:15.396Z,92840.84
2023-08-14T07:16:41.975Z,92840.00
2023-08-14T07:19:08.521Z,92841.81
2023-08-14T07:21:34.987Z,92842.06
2023-08-14T07:24:01.609Z,92840.63
2023-08-14T07:26:28.137Z,92836.97
2023-08-14T07:28:54.600Z,92847.94
2023-08-14T07:31:21.069Z,92844.06
2023-08-14T07:33:47.555Z,92845.44
2023-08-14T07:36:14.021Z,92845.38
2023-08-14T07:38:40.445Z,92838.47
2023-08-14T07:41:06.996Z,92842.63
2023-08-14T07:43:33.456Z,92847.56
2023-08-14T07:45:59.923Z,92854.81
2023-08-14T07:48:26.445Z,92851.38
2023-08-14T07:50:54.104Z,92851.09
2023-08-14T07:53:20.610Z,92849.97
2023-08-14T07:55:49.243Z,92858.47
2023-08-14T07:58:16.477Z,92860.59
2023-08-14T08:00:43.530Z,92860.22
2023-08-14T08:03:10.206Z,92865.59
2023-08-14T08:05:37.318Z,92865.78
2023-08-14T08:08:04.507Z,92868.91
2023-08-14T08:10:31.130Z,92866.22
2023-08-14T08:12:57.784Z,92865.31
2023-08-14T08:15:24.256Z,92865.53
2023-08-14T08:17:50.798Z,92872.63
2023-08-14T08:20:17.450Z,92875.75
2023-08-14T08:22:44.178Z,92883.13
2023-08-14T08:25:10.619Z,92882.22
2023-08-14T08:27:37.097Z,92879.28
2023-08-14T08:30:04.608Z,92886.03
2023-08-14T08:32:31.330Z,92886.59
2023-08-14T08:34:58.060Z,92879.91
2023-08-14T08:37:24.644Z,92883.81
2023-08-14T08:39:53.691Z,92885.22
2023-08-14T08:42:21.249Z,92880.16
2023-08-14T08:44:50.883Z,92885.91
2023-08-14T08:47:21.869Z,92888.56
2023-08-14T08:49:48.455Z,92886.34
2023-08-14T08:52:16.024Z,92884.03
2023-08-14T08:54:43.028Z,92884.38
2023-08-14T08:57:09.880Z,92873.19
2023-08-14T08:59:38.388Z,92879.00
2023-08-14T09:02:04.939Z,92872.00
2023-08-14T09:04:31.529Z,92881.09
2023-08-14T09:06:58.271Z,92884.75
2023-08-14T09:09:24.914Z,92872.59
2023-08-14T09:11:51.373Z,92874.34
2023-08-14T09:14:18.738Z,92875.47
2023-08-14T09:16:45.719Z,92874.38
2023-08-14T09:19:15.882Z,92869.03
2023-08-14T09:21:44.216Z,92874.47
2023-08-14T09:24:12.843Z,92882.13
2023-08-14T09:26:39.399Z,92881.19
2023-08-14T09:29:06.028Z,92875.28
2023-08-14T09:31:35.242Z,92871.25
2023-08-14T09:34:02.524Z,92874.84
2023-08-14T09:36:37.832Z,92878.25
2023-08-14T09:39:04.944Z,92873.09
2023-08-14T09:41:32.169Z,92876.97
2023-08-14T09:44:02.225Z,92880.16
2023-08-14T09:46:29.436Z,92875.56
2023-08-14T09:48:56.769Z,92875.59
2023-08-14T09:51:23.477Z,92880.16
2023-08-14T09:53:54.318Z,92879.84
2023-08-14T09:56:21.731Z,92874.28
2023-08-14T09:58:49.183Z,92878.47
2023-08-14T10:01:17.458Z,92878.94
2023-08-14T10:03:47.482Z,92876.34
2023-08-14T10:06:16.424Z,92878.03
2023-08-14T10:08:45.843Z,92881.53
2023-08-14T10:13:47.406Z,92883.72
2023-08-14T10:16:28.363Z,92877.63
2023-08-14T10:18:56.695Z,92870.47
2023-08-14T10:21:29.694Z,92883.91
2023-08-14T10:23:57.835Z,92874.13
2023-08-14T10:26:27.641Z,92880.50
2023-08-14T10:28:57.305Z,92879.25
2023-08-14T10:31:24.446Z,92897.16
2023-08-14T10:33:51.656Z,92884.56
2023-08-14T10:36:21.748Z,92879.72
2023-08-14T10:41:22.129Z,92867.59
2023-08-14T10:43:54.255Z,92875.16
2023-08-14T10:46:21.105Z,92865.75
2023-08-14T10:48:50.103Z,92863.25
2023-08-14T10:51:21.377Z,92861.69
2023-08-14T10:53:47.867Z,92866.88
2023-08-14T10:56:14.564Z,92878.22
2023-08-14T10:58:48.516Z,92883.41
2023-08-14T11:01:15.997Z,92880.09
2023-08-14T11:03:58.491Z,92867.00
2023-08-14T11:06:29.460Z,92870.34
2023-08-14T11:09:16.066Z,92881.94
2023-08-14T11:11:48.733Z,92886.00
2023-08-14T11:14:15.512Z,92883.66
2023-08-14T11:16:42.537Z,92896.38
2023-08-14T11:19:09.218Z,92894.19
2023-08-14T11:21:36.144Z,92905.59
2023-08-14T11:24:11.323Z,92916.19
2023-08-14T11:26:37.829Z,92908.50
2023-08-14T11:29:04.493Z,92904.00
2023-08-14T11:31:34.979Z,92907.06
2023-08-14T11:34:07.720Z,92914.41
2023-08-14T11:36:34.958Z,92922.69
2023-08-14T11:39:01.896Z,92924.75
2023-08-14T11:43:57.759Z,92947.78
2023-08-14T11:46:25.156Z,92954.28
2023-08-14T11:48:51.605Z,92950.59
2023-08-14T11:51:19.329Z,92942.72
2023-08-14T11:53:46.221Z,92944.03
2023-08-14T11:56:13.312Z,92942.06
2023-08-14T11:58:40.602Z,92931.44
2023-08-14T12:01:09.115Z,92925.44
2023-08-14T12:03:35.710Z,92928.25
2023-08-14T12:06:05.180Z,92929.50
2023-08-14T12:08:31.968Z,92931.78
2023-08-14T12:10:58.950Z,92927.13
2023-08-14T12:13:25.401Z,92934.47
2023-08-14T12:15:53.085Z,92929.94
2023-08-14T12:18:24.064Z,92926.25
2023-08-14T12:20:52.234Z,92925.81
2023-08-14T12:23:24.353Z,92919.88
2023-08-14T12:25:51.965Z,92922.44
2023-08-14T12:28:19.682Z,92915.16
2023-08-14T12:30:47.998Z,92912.88
2023-08-14T12:33:15.344Z,92904.03
2023-08-14T12:35:41.814Z,92904.41
2023-08-14T12:38:08.601Z,92900.53
2023-08-14T12:40:35.347Z,92903.59
2023-08-14T12:43:01.983Z,92890.06
2023-08-14T12:45:29.049Z,92894.25
2023-08-14T12:47:55.583Z,92890.72
2023-08-14T12:50:22.076Z,92896.91
2023-08-14T12:52:48.541Z,92889.94
2023-08-14T12:55:18.975Z,92884.75
2023-08-14T12:57:47.030Z,92890.97
2023-08-14T13:00:14.559Z,92880.22
2023-08-14T13:02:41.053Z,92882.22
2023-08-14T13:05:07.836Z,92882.25
2023-08-14T13:07:34.399Z,92873.69
2023-08-14T13:10:01.214Z,92874.47
2023-08-14T13:12:27.752Z,92867.03
2023-08-14T13:14:55.379Z,92866.72
2023-08-14T13:17:22.286Z,92865.59
2023-08-14T13:19:49.153Z,92875.66
2023-08-14T13:22:17.097Z,92873.69
2023-08-14T13:24:46.342Z,92874.06
2023-08-14T13:27:12.847Z,92879.00
2023-08-14T13:29:39.348Z,92892.38
2023-08-14T13:32:06.301Z,92890.09
2023-08-14T13:34:33.044Z,92902.38
2023-08-14T13:36:59.489Z,92916.13
2023-08-14T13:39:26.041Z,92912.03
2023-08-14T13:41:52.677Z,92914.22
2023-08-14T13:44:19.173Z,92915.78
2023-08-14T13:46:45.670Z,92920.50
2023-08-14T13:49:12.238Z,92918.88
2023-08-14T13:51:38.797Z,92911.97
2023-08-14T13:54:06.367Z,92893.50
2023-08-14T13:56:32.833Z,92893.16
2023-08-14T13:59:00.487Z,92887.41
2023-08-14T14:01:27.709Z,92884.97
2023-08-14T14:03:54.845Z,92877.63
2023-08-14T14:06:21.601Z,92873.81
2023-08-14T14:08:48.136Z,92875.28
2023-08-14T14:11:14.830Z,92865.75
2023-08-14T14:13:41.347Z,92872.59
2023-08-14T14:16:08.623Z,92876.25
2023-08-14T14:18:35.250Z,92871.16
2023-08-14T14:21:01.722Z,92872.53
2023-08-14T14:23:28.211Z,92876.50
2023-08-14T14:25:54.662Z,92871.25
2023-08-14T14:28:21.129Z,92874.50
2023-08-14T14:30:47.587Z,92872.63
2023-08-14T14:33:14.029Z,92881.72
2023-08-14T14:35:40.547Z,92877.06
2023-08-14T14:38:07.018Z,92869.00
2023-08-14T14:40:33.490Z,92868.53
2023-08-14T14:42:59.955Z,92868.59
2023-08-14T14:45:34.583Z,92870.34
2023-08-14T14:48:02.566Z,92861.69
2023-08-14T14:50:30.682Z,92854.59
2023-08-14T14:52:57.927Z,92853.75
2023-08-14T14:55:27.242Z,92856.94
2023-08-14T14:57:53.772Z,92849.06
2023-08-14T15:00:20.313Z,92842.63
2023-08-14T15:02:46.891Z,92841.69
2023-08-14T15:05:25.728Z,92841.22
2023-08-14T15:07:53.992Z,92839.44
2023-08-14T15:10:20.609Z,92833.19
2023-08-14T15:12:47.456Z,92841.44
2023-08-14T15:15:14.022Z,92839.22
2023-08-14T15:17:44.587Z,92842.44
2023-08-14T15:20:13.089Z,92836.44
2023-08-14T15:22:39.821Z,92832.47
2023-08-14T15:25:08.607Z,92832.69
2023-08-14T15:27:35.130Z,92830.81
2023-08-14T15:30:01.610Z,92832.06
2023-08-14T15:32:28.092Z,92825.63
2023-08-14T15:34:54.565Z,92811.50
2023-08-14T15:37:21.256Z,92817.25
2023-08-14T15:39:49.769Z,92812.94
2023-08-14T15:42:18.012Z,92823.22
2023-08-14T15:44:44.616Z,92813.63
2023-08-14T15:47:11.129Z,92820.59
2023-08-14T15:49:37.579Z,92813.81
2023-08-14T15:52:04.119Z,92806.13
2023-08-14T15:54:46.776Z,92811.31
2023-08-14T15:57:17.262Z,92807.56
2023-08-14T15:59:44.110Z,92816.47
2023-08-14T16:02:10.578Z,92808.91
2023-08-14T16:04:37.696Z,92812.47
2023-08-14T16:07:04.215Z,92814.09
2023-08-14T16:09:30.736Z,92808.84
2023-08-14T16:11:59.785Z,92813.22
2023-08-14T16:14:26.438Z,92813.91
2023-08-14T16:16:52.946Z,92815.38
2023-08-14T16:19:21.793Z,92819.03
2023-08-14T16:21:48.544Z,92812.75
2023-08-14T16:24:15.120Z,92806.69
2023-08-14T16:26:41.565Z,92812.66
2023-08-14T16:29:08.017Z,92806.28
2023-08-14T16:31:34.481Z,92816.69
2023-08-14T16:34:00.998Z,92809.00
2023-08-14T16:36:27.468Z,92812.19
2023-08-14T16:38:53.972Z,92817.13
2023-08-14T16:41:20.492Z,92805.88
2023-08-14T16:43:46.916Z,92809.88
2023-08-14T16:46:13.479Z,92805.75
2023-08-14T16:48:39.934Z,92812.53
2023-08-14T16:51:06.498Z,92809.97
2023-08-14T16:53:32.955Z,92808.19
2023-08-14T16:55:59.489Z,92807.47
2023-08-14T16:58:25.972Z,92807.50
2023-08-14T17:00:54.000Z,92807.88
2023-08-14T17:03:20.561Z,92806.56
2023-08-14T17:05:47.102Z,92808.34
2023-08-14T17:08:13.577Z,92811.19
2023-08-14T17:10:40.254Z,92817.09
2023-08-14T17:13:06.764Z,92813.22
2023-08-14T17:15:43.125Z,92814.16
2023-08-14T17:18:09.640Z,92819.00
2023-08-14T17:20:36.196Z,92813.00
2023-08-14T17:23:02.838Z,92809.75
2023-08-14T17:25:29.293Z,92813.91
2023-08-14T17:27:55.727Z,92817.91
2023-08-14T17:30:22.227Z,92797.53
2023-08-14T17:32:53.423Z,92812.81
2023-08-14T17:35:20.787Z,92810.94
2023-08-14T17:37:47.471Z,92811.34
2023-08-14T17:40:14.796Z,92810.97
2023-08-14T17:42:41.820Z,92811.78
2023-08-14T17:45:08.573Z,92807.13
2023-08-14T17:47:35.313Z,92809.44
2023-08-14T17:50:02.707Z,92807.88
2023-08-14T17:52:29.319Z,92807.88
2023-08-14T17:54:55.803Z,92821.28
2023-08-14T17:57:22.452Z,92818.13
2023-08-14T17:59:49.215Z,92826.16
2023-08-14T18:02:15.663Z,92823.75
2023-08-14T18:04:42.163Z,92816.69
2023-08-14T18:07:08.620Z,92818.19
2023-08-14T18:09:35.122Z,92819.56
2023-08-14T18:12:01.566Z,92823.31
2023-08-14T18:14:28.098Z,92828.59
2023-08-14T18:16:54.570Z,92831.13
2023-08-14T18:21:50.406Z,92835.56
2023-08-14T18:24:17.042Z,92839.84
2023-08-14T18:26:43.454Z,92842.16
2023-08-14T18:29:09.999Z,92841.31
2023-08-14T18:31:37.169Z,92834.28
2023-08-14T18:34:03.780Z,92837.44
2023-08-14T18:36:30.952Z,92843.00
2023-08-14T18:38:57.491Z,92836.59
2023-08-14T18:41:23.966Z,92841.41
2023-08-14T18:43:50.398Z,92839.50
2023-08-14T18:46:16.955Z,92847.00
2023-08-14T18:48:43.470Z,92839.16
2023-08-14T18:51:09.934Z,92842.09
2023-08-14T18:53:36.949Z,92843.53
2023-08-14T18:56:03.477Z,92848.69
2023-08-14T18:58:30.096Z,92849.69
2023-08-14T19:00:56.651Z,92849.84
2023-08-14T19:03:23.298Z,92854.34
2023-08-14T19:05:55.567Z,92864.13
2023-08-14T19:08:22.014Z,92867.09
2023-08-14T19:10:48.476Z,92869.59
2023-08-14T19:13:14.924Z,92875.34
2023-08-14T19:15:49.198Z,92883.97
2023-08-14T19:18:16.720Z,92883.59
2023-08-14T19:20:44.218Z,92885.66
2023-08-14T19:23:11.266Z,92896.50
2023-08-14T19:25:38.532Z,92900.19
2023-08-14T19:28:19.395Z,92903.13
2023-08-14T19:30:47.953Z,92905.81
2023-08-14T19:33:14.916Z,92910.97
2023-08-14T19:35:41.593Z,92906.72
2023-08-14T19:38:08.048Z,92916.09
2023-08-14T19:40:37.736Z,92919.47
2023-08-14T19:43:04.489Z,92915.41
2023-08-14T19:45:31.044Z,92914.97
2023-08-14T19:47:57.558Z,92921.72
2023-08-14T19:50:24.060Z,92911.75
2023-08-14T19:52:50.500Z,92903.84
2023-08-14T19:55:17.026Z,92905.69
2023-08-14T19:57:43.483Z,92900.56
2023-08-14T20:00:10.929Z,92890.09
2023-08-14T20:02:37.466Z,92901.75
2023-08-14T20:05:05.898Z,92895.97
2023-08-14T20:07:32.577Z,92893.09
2023-08-14T20:10:01.224Z,92891.19
2023-08-14T20:12:27.821Z,92893.53
2023-08-14T20:14:54.270Z,92898.03
2023-08-14T20:17:21.006Z,92896.06
2023-08-14T20:19:48.688Z,92895.88
2023-08-14T20:22:15.122Z,92898.78
2023-08-14T20:24:41.620Z,92906.31
2023-08-14T20:27:08.837Z,92896.84
2023-08-14T20:29:35.297Z,92899.53
2023-08-14T20:32:02.863Z,92903.97
2023-08-14T20:34:29.369Z,92909.09
2023-08-14T20:36:55.801Z,92908.44
2023-08-14T20:39:23.333Z,92908.34
2023-08-14T20:41:49.882Z,92913.16
2023-08-14T20:44:16.336Z,92923.44
2023-08-14T20:46:42.860Z,92929.78
2023-08-14T20:49:09.366Z,92928.47
2023-08-14T20:51:35.853Z,92923.22
2023-08-14T20:54:02.319Z,92935.13
2023-08-14T20:56:28.841Z,92924.53
2023-08-14T20:58:55.322Z,92918.75
2023-08-14T21:01:21.790Z,92926.78
2023-08-14T21:03:48.415Z,92935.69
2023-08-14T21:06:17.187Z,92929.25
2023-08-14T21:08:44.815Z,92909.22
2023-08-14T21:11:11.264Z,92914.28
2023-08-14T21:13:37.687Z,92929.56
2023-08-14T21:16:04.380Z,92940.41
2023-08-14T21:18:30.913Z,92925.00
2023-08-14T21:20:57.353Z,92923.19
2023-08-14T21:23:23.863Z,92919.19
2023-08-14T21:25:50.438Z,92919.19
2023-08-14T21:28:17.003Z,92933.78
2023-08-14T21:30:43.666Z,92933.03
2023-08-14T21:33:10.155Z,92928.09
2023-08-14T21:35:36.665Z,92926.06
2023-08-14T21:38:04.119Z,92928.91
2023-08-14T21:40:30.552Z,92928.47
2023-08-14T21:42:58.345Z,92933.09
2023-08-14T21:45:24.833Z,92926.97
2023-08-14T21:47:51.318Z,92922.38
2023-08-14T21:50:17.895Z,92923.19
2023-08-14T21:52:44.352Z,92918.59
2023-08-14T21:55:10.788Z,92923.31
2023-08-14T21:57:37.234Z,92926.44
2023-08-14T22:00:05.424Z,92924.97
2023-08-14T22:02:32.238Z,92919.16
2023-08-14T22:04:58.725Z,92912.91
2023-08-14T22:07:25.224Z,92903.63
2023-08-14T22:09:51.678Z,92899.91
2023-08-14T22:12:18.127Z,92896.13
2023-08-14T22:14:45.140Z,92899.03
2023-08-14T22:17:11.662Z,92907.28
2023-08-14T22:19:38.219Z,92912.59
2023-08-14T22:22:04.704Z,92912.00
2023-08-14T22:24:40.664Z,92921.81
2023-08-14T22:27:07.565Z,92920.13
2023-08-14T22:29:34.061Z,92915.19
2023-08-14T22:32:00.515Z,92922.13
2023-08-14T22:34:26.984Z,92917.22
2023-08-14T22:36:53.454Z,92913.13
2023-08-14T22:39:19.897Z,92923.47
2023-08-14T22:41:46.340Z,92924.25
2023-08-14T22:44:12.787Z,92935.94
2023-08-14T22:46:39.218Z,92942.34
2023-08-14T22:49:05.657Z,92933.88
2023-08-14T22:51:32.088Z,92924.63
2023-08-14T22:53:58.554Z,92920.72
2023-08-14T22:56:24.973Z,92912.94
2023-08-14T22:58:51.409Z,92914.97
2023-08-14T23:01:17.875Z,92921.88
2023-08-14T23:03:44.480Z,92919.66
2023-08-14T23:06:10.966Z,92921.97
2023-08-14T23:08:37.453Z,92928.00
2023-08-14T23:11:03.908Z,92925.66
2023-08-14T23:13:30.347Z,92920.94
2023-08-14T23:15:56.836Z,92919.28
2023-08-14T23:18:23.328Z,92916.91
2023-08-14T23:20:49.781Z,92918.03
2023-08-14T23:23:16.220Z,92916.22
2023-08-14T23:25:42.716Z,92919.53
2023-08-14T23:28:09.195Z,92916.41
2023-08-14T23:30:39.237Z,92918.81
2023-08-14T23:33:06.922Z,92924.34
2023-08-14T23:35:33.372Z,92918.56
2023-08-14T23:37:59.814Z,92903.59
2023-08-14T23:40:26.253Z,92906.41
2023-08-14T23:42:52.702Z,92905.19
2023-08-14T23:45:19.258Z,92894.41
2023-08-14T23:47:45.799Z,92907.34
2023-08-14T23:50:12.308Z,92892.84
2023-08-14T23:52:38.740Z,92888.63
2023-08-14T23:55:05.639Z,92878.72
2023-08-14T23:57:32.100Z,92882.66
2023-08-14T23:59:58.634Z,92877.78
